Time;durP1;ratioP1;P1;durP2;ratioP2;P2;SDS_P1;SDS_P2;PMS_P1;PMS_P2;Temp;Humidity;BMP_temperature;BMP_pressure;BME280_temperature;BME280_humidity;BME280_pressure;Samples;Min_cycle;Max_cycle;Signal;HPM_P1;HPM_P2
2022/03/09 00:00:58;;;;;;;4.37;3.57;;;5.10;98.70;4.80;101905.00;;;;5114905;28;20176;-69
2022/03/09 00:03:25;;;;;;;2.13;2.03;;;5.00;98.70;4.80;101959.00;;;;5115371;28;20191;-69
2022/03/09 00:05:54;;;;;;;2.20;2.07;;;4.90;98.90;4.80;101952.00;;;;5116577;28;20170;-69
2022/03/09 00:08:29;;;;;;;2.00;1.63;;;4.90;98.90;4.90;101958.00;;;;5115187;28;20267;-69
2022/03/09 00:10:58;;;;;;;0.93;0.93;;;4.90;99.00;4.90;101954.00;;;;5115169;28;20283;-69
2022/03/09 00:13:30;;;;;;;2.33;2.27;;;4.90;99.00;4.90;101957.00;;;;5097045;28;20563;-69
2022/03/09 00:16:01;;;;;;;3.33;2.90;;;5.00;98.90;5.10;101958.00;;;;5115487;28;20253;-68
2022/03/09 00:18:32;;;;;;;0.67;0.67;;;5.00;99.10;4.80;101953.00;;;;5114921;28;20233;-68
2022/03/09 00:21:03;;;;;;;0.93;0.93;;;5.00;99.30;4.70;101970.00;;;;5097701;28;20591;-68
2022/03/09 00:23:35;;;;;;;3.17;2.83;;;4.90;99.60;4.80;101983.00;;;;5114173;28;20193;-69
2022/03/09 00:26:06;;;;;;;0.23;0.23;;;4.80;99.90;4.70;101966.00;;;;5114765;28;20528;-69
2022/03/09 00:28:39;;;;;;;1.23;1.23;;;4.80;99.90;4.70;101985.00;;;;5114967;28;20567;-69
2022/03/09 00:31:08;;;;;;;1.80;1.70;;;4.80;99.90;4.70;101966.00;;;;5097594;28;20182;-69
2022/03/09 00:33:38;;;;;;;0.87;0.83;;;4.80;99.90;4.30;101934.00;;;;5114638;28;20189;-68
2022/03/09 00:36:07;;;;;;;2.77;1.43;;;4.70;99.90;4.70;101975.00;;;;5114432;28;20598;-69
2022/03/09 00:38:40;;;;;;;1.13;1.07;;;4.70;99.90;4.90;101977.00;;;;5114560;28;20206;-69
2022/03/09 00:41:13;;;;;;;1.23;1.23;;;4.80;99.90;4.50;101986.00;;;;5097562;28;20617;-68
2022/03/09 00:43:43;;;;;;;1.83;1.73;;;4.70;99.90;4.40;101992.00;;;;5097383;28;20190;-69
2022/03/09 00:46:12;;;;;;;1.27;1.23;;;4.50;99.90;4.30;101980.00;;;;5115474;28;20181;-69
2022/03/09 00:48:45;;;;;;;4.07;3.60;;;4.50;99.90;4.50;101986.00;;;;5115588;28;20177;-69
2022/03/09 00:51:19;;;;;;;3.90;3.63;;;4.50;99.90;4.20;101995.00;;;;5113903;28;20290;-69
2022/03/09 00:53:50;;;;;;;4.07;2.03;;;4.40;99.90;4.40;101995.00;;;;5114169;28;20201;-69
2022/03/09 00:56:19;;;;;;;0.93;0.93;;;4.50;99.90;4.40;101988.00;;;;5112990;28;20184;-69
2022/03/09 00:58:55;;;;;;;0.93;0.73;;;4.50;99.90;4.20;101984.00;;;;5097088;28;20271;-69
2022/03/09 01:01:21;;;;;;;3.50;1.43;;;4.40;99.90;4.40;101958.00;;;;5114002;28;20185;-69
2022/03/09 01:03:49;;;;;;;0.87;0.87;;;4.40;99.90;4.20;101994.00;;;;5114234;28;20183;-69
2022/03/09 01:06:26;;;;;;;1.40;1.30;;;4.30;99.90;4.50;101983.00;;;;5096770;28;20179;-68
2022/03/09 01:08:54;;;;;;;1.60;1.40;;;4.30;99.90;4.30;101996.00;;;;5097606;28;20173;-69
2022/03/09 01:11:23;;;;;;;2.87;2.70;;;4.30;99.90;4.30;102000.00;;;;5113412;28;20212;-68
2022/03/09 01:13:57;;;;;;;0.83;0.83;;;4.30;99.90;4.00;101997.00;;;;5097218;28;20180;-69
2022/03/09 01:16:25;;;;;;;0.37;0.37;;;4.20;99.90;3.90;101993.00;;;;5113952;28;20161;-69
2022/03/09 01:18:54;;;;;;;2.50;2.13;;;4.10;99.90;3.90;101936.00;;;;5115286;28;20187;-69
2022/03/09 01:21:25;;;;;;;0.70;0.70;;;4.00;99.90;3.70;101983.00;;;;5096684;28;20289;-69
2022/03/09 01:23:55;;;;;;;0.23;0.23;;;3.90;99.90;3.50;101988.00;;;;5113518;28;20205;-69
2022/03/09 01:26:25;;;;;;;3.03;2.93;;;3.80;99.90;3.90;101973.00;;;;5113173;28;21060;-69
2022/03/09 01:28:55;;;;;;;0.87;0.87;;;3.80;99.90;3.90;101990.00;;;;5113718;28;20172;-69
2022/03/09 01:31:24;;;;;;;1.13;0.67;;;4.00;99.90;3.90;101982.00;;;;5113122;28;20300;-69
2022/03/09 01:33:58;;;;;;;1.37;1.27;;;3.90;99.90;3.60;101993.00;;;;5113320;28;20180;-68
2022/03/09 01:36:29;;;;;;;5.00;1.93;;;3.80;99.90;3.70;101987.00;;;;5114498;28;20201;-69
2022/03/09 01:38:55;;;;;;;0.77;0.77;;;3.80;99.90;3.80;101984.00;;;;5113593;28;20623;-68
2022/03/09 01:41:30;;;;;;;1.83;1.40;;;3.90;99.90;3.90;101990.00;;;;5113345;28;20276;-68
2022/03/09 01:44:30;;;;;;;0.60;0.60;;;3.90;99.90;3.60;101971.00;;;;5096685;28;20536;-69
2022/03/09 01:46:56;;;;;;;0.40;0.40;;;3.80;99.90;3.80;101988.00;;;;5082032;28;20196;-69
2022/03/09 01:49:24;;;;;;;1.63;1.53;;;3.80;99.90;3.50;101984.00;;;;5096103;28;20242;-69
2022/03/09 01:51:52;;;;;;;5.30;2.00;;;3.70;99.90;3.80;101986.00;;;;5096471;28;20298;-69
2022/03/09 01:54:22;;;;;;;2.43;2.33;;;3.80;99.90;3.80;101988.00;;;;5095705;28;20187;-69
2022/03/09 01:56:59;;;;;;;0.97;0.97;;;3.90;99.90;3.80;101920.00;;;;5096488;28;20244;-69
2022/03/09 01:59:27;;;;;;;1.30;0.93;;;3.80;99.90;3.60;101976.00;;;;5112768;28;20171;-69
2022/03/09 02:01:58;;;;;;;1.23;0.57;;;3.70;99.90;3.40;101964.00;;;;5113404;28;20186;-69
2022/03/09 02:04:27;;;;;;;0.87;0.87;;;3.60;99.90;3.60;101972.00;;;;5112955;28;20274;-69
2022/03/09 02:06:53;;;;;;;1.17;1.07;;;3.70;99.90;3.50;101960.00;;;;5095937;28;20235;-69
2022/03/09 02:09:44;;;;;;;1.80;1.67;;;3.60;99.90;3.40;101963.00;;;;5112429;28;20180;-68
2022/03/09 02:12:18;;;;;;;1.00;1.00;;;3.60;99.90;3.30;101977.00;;;;5098607;28;20262;-69
2022/03/09 02:14:49;;;;;;;0.43;0.43;;;3.60;99.90;3.20;101969.00;;;;5112921;28;20739;-69
2022/03/09 02:17:21;;;;;;;4.17;2.00;;;3.60;99.90;3.50;101968.00;;;;5095700;28;20533;-69
2022/03/09 02:19:51;;;;;;;1.47;1.37;;;3.60;99.90;3.10;101970.00;;;;5112593;28;20185;-69
2022/03/09 02:22:20;;;;;;;3.20;3.00;;;3.50;99.90;3.50;101968.00;;;;5095663;28;20192;-70
2022/03/09 02:24:52;;;;;;;0.87;0.87;;;3.50;99.90;3.50;101962.00;;;;5112446;28;20635;-69
2022/03/09 02:27:22;;;;;;;1.33;0.87;;;3.50;99.90;3.30;101972.00;;;;5095758;28;20187;-69
2022/03/09 02:30:01;;;;;;;5.73;1.80;;;3.50;99.90;3.30;101977.00;;;;5112876;28;20176;-69
2022/03/09 02:32:30;;;;;;;2.90;2.17;;;3.50;99.90;3.40;101968.00;;;;5112225;28;20219;-69
2022/03/09 02:35:01;;;;;;;6.40;3.23;;;3.40;99.90;3.20;101968.00;;;;5095439;28;20183;-69
2022/03/09 02:37:30;;;;;;;0.90;0.90;;;3.40;99.90;3.00;101963.00;;;;5112792;28;20187;-69
2022/03/09 02:39:55;;;;;;;1.27;1.20;;;3.30;99.90;2.90;101962.00;;;;5113275;28;20176;-69
2022/03/09 02:42:21;;;;;;;1.43;1.33;;;3.30;99.90;3.10;101967.00;;;;5112272;28;20597;-69
2022/03/09 02:44:47;;;;;;;2.60;1.70;;;3.30;99.90;3.20;101922.00;;;;5112161;28;20267;-70
2022/03/09 02:47:17;;;;;;;3.23;2.77;;;3.30;99.90;3.30;101912.00;;;;5112293;28;20194;-69
2022/03/09 02:49:51;;;;;;;3.80;1.90;;;3.40;99.90;3.10;101959.00;;;;5095415;28;20646;-69
2022/03/09 02:52:20;;;;;;;2.50;2.30;;;3.30;99.90;3.10;101903.00;;;;5095112;28;20670;-68
2022/03/09 02:54:49;;;;;;;7.97;6.17;;;3.30;99.90;3.10;101956.00;;;;5112463;28;20195;-70
2022/03/09 02:57:20;;;;;;;1.70;1.37;;;3.20;99.90;3.00;101944.00;;;;5112510;28;20168;-70
2022/03/09 02:59:51;;;;;;;1.07;1.00;;;3.10;99.90;3.00;101951.00;;;;5112208;28;20187;-71
2022/03/09 03:02:21;;;;;;;1.73;1.63;;;3.20;99.90;3.20;101927.00;;;;5096122;28;20188;-70
2022/03/09 03:04:50;;;;;;;5.07;2.57;;;3.20;99.90;3.00;101929.00;;;;5112211;28;20176;-72
2022/03/09 03:07:21;;;;;;;0.50;0.47;;;3.20;99.90;3.00;101939.00;;;;5113075;28;20180;-69
2022/03/09 03:09:47;;;;;;;1.60;1.50;;;3.20;99.90;3.00;101886.00;;;;5113429;28;20228;-71
2022/03/09 03:12:15;;;;;;;3.73;1.43;;;3.20;99.90;2.90;101936.00;;;;5112179;28;20282;-70
2022/03/09 03:14:41;;;;;;;1.60;1.60;;;3.20;99.90;2.90;101945.00;;;;5112321;28;20501;-70
2022/03/09 03:17:10;;;;;;;0.47;0.47;;;3.20;99.90;2.90;101891.00;;;;5095136;28;20191;-68
2022/03/09 03:19:41;;;;;;;2.23;1.50;;;3.20;99.90;2.70;101934.00;;;;5098125;28;20654;-69
2022/03/09 03:22:09;;;;;;;1.03;1.03;;;3.00;99.90;3.10;101942.00;;;;5117164;28;20801;-70
2022/03/09 03:24:39;;;;;;;2.93;2.27;;;3.10;99.90;2.80;101945.00;;;;5099143;28;20539;-70
2022/03/09 03:27:05;;;;;;;3.10;1.90;;;3.10;99.90;3.20;101946.00;;;;5117034;28;20258;-70
2022/03/09 03:29:33;;;;;;;3.23;3.03;;;3.20;99.90;3.00;101953.00;;;;5098489;28;20275;-69
2022/03/09 03:32:02;;;;;;;4.50;2.23;;;3.20;99.90;2.80;101891.00;;;;5115818;28;20230;-70
2022/03/09 03:34:27;;;;;;;2.60;0.80;;;3.10;99.90;3.00;101962.00;;;;5098613;28;20215;-69
2022/03/09 03:36:56;;;;;;;1.50;1.27;;;3.20;99.90;2.80;101945.00;;;;5098435;28;20671;-69
2022/03/09 03:39:25;;;;;;;2.47;1.47;;;3.10;99.90;2.80;101938.00;;;;5115300;28;20179;-70
2022/03/09 03:41:56;;;;;;;0.97;0.90;;;3.00;99.90;2.90;101905.00;;;;5115748;28;20180;-70
2022/03/09 03:44:22;;;;;;;4.30;1.57;;;3.20;99.90;3.10;101946.00;;;;5116176;28;20184;-69
2022/03/09 03:46:51;;;;;;;2.40;2.20;;;3.10;99.90;3.00;101934.00;;;;5115543;28;20223;-70
2022/03/09 03:49:22;;;;;;;1.73;1.47;;;3.20;99.90;2.80;101899.00;;;;5098286;28;20647;-70
2022/03/09 03:51:50;;;;;;;1.73;1.63;;;3.00;99.90;3.20;101895.00;;;;5116521;28;20636;-69
2022/03/09 03:54:19;;;;;;;0.70;0.63;;;3.20;99.90;3.10;101942.00;;;;5116554;27;20172;-69
2022/03/09 03:56:53;;;;;;;2.07;1.13;;;3.20;99.90;3.00;101949.00;;;;5115522;28;20182;-70
2022/03/09 03:59:21;;;;;;;2.27;2.07;;;3.20;99.90;2.70;101897.00;;;;5115364;28;20175;-70
2022/03/09 04:01:47;;;;;;;1.67;1.53;;;3.00;99.90;2.70;101933.00;;;;5097991;28;20219;-70
2022/03/09 04:04:17;;;;;;;3.10;1.17;;;3.00;99.90;2.70;101930.00;;;;5115398;28;20215;-69
2022/03/09 04:06:45;;;;;;;2.33;1.90;;;3.00;99.90;2.80;101936.00;;;;5114770;28;20583;-70
2022/03/09 04:09:17;;;;;;;1.10;1.10;;;3.10;99.90;2.80;101950.00;;;;5098124;28;20180;-70
2022/03/09 04:11:51;;;;;;;1.90;1.80;;;3.10;99.90;2.60;101897.00;;;;5114852;28;20555;-70
2022/03/09 04:14:19;;;;;;;0.57;0.57;;;3.00;99.90;2.50;101941.00;;;;5097926;28;20283;-70
2022/03/09 04:16:51;;;;;;;1.67;1.57;;;3.00;99.90;2.80;101941.00;;;;5114957;28;20179;-70
2022/03/09 04:19:19;;;;;;;2.90;2.30;;;3.00;99.90;2.70;101944.00;;;;5097538;28;20176;-69
2022/03/09 04:21:51;;;;;;;1.50;1.40;;;3.00;99.90;2.80;101884.00;;;;5097709;28;20180;-70
2022/03/09 04:24:24;;;;;;;1.63;1.53;;;3.00;99.90;2.90;101949.00;;;;5114821;28;20187;-70
2022/03/09 04:26:53;;;;;;;0.67;0.67;;;3.10;99.90;3.00;101951.00;;;;5114817;28;20647;-70
2022/03/09 04:29:21;;;;;;;0.83;0.83;;;3.10;99.90;3.30;101964.00;;;;5097638;28;20172;-70
2022/03/09 04:31:49;;;;;;;32.63;2.17;;;3.30;99.90;2.90;101956.00;;;;5097339;28;20693;-70
2022/03/09 04:34:18;;;;;;;2.00;1.90;;;3.10;99.90;2.90;101961.00;;;;5097362;28;20184;-70
2022/03/09 04:36:44;;;;;;;2.87;2.00;;;3.10;99.90;3.30;101956.00;;;;5114595;28;20200;-70
2022/03/09 04:39:12;;;;;;;0.30;0.30;;;3.20;99.90;2.80;101956.00;;;;5097500;28;20257;-70
2022/03/09 04:41:43;;;;;;;1.03;1.03;;;3.10;99.90;2.70;101902.00;;;;5114699;28;20199;-70
2022/03/09 04:44:09;;;;;;;1.33;0.93;;;3.00;99.90;2.60;101960.00;;;;5114324;28;20172;-70
2022/03/09 04:46:37;;;;;;;2.00;1.90;;;2.90;99.90;2.50;101950.00;;;;5097384;28;20195;-70
2022/03/09 04:49:06;;;;;;;0.20;0.20;;;2.90;99.90;2.70;101934.00;;;;5114192;28;20176;-69
2022/03/09 04:51:36;;;;;;;0.20;0.20;;;2.90;99.90;2.80;101941.00;;;;5097154;28;20203;-69
2022/03/09 04:54:03;;;;;;;4.00;3.70;;;3.00;99.90;2.80;101945.00;;;;5097781;28;20187;-70
2022/03/09 04:56:31;;;;;;;1.03;1.03;;;3.00;99.90;2.40;101965.00;;;;5113984;28;20180;-70
2022/03/09 04:59:01;;;;;;;0.97;0.87;;;2.80;99.90;2.80;101959.00;;;;5097367;28;20176;-70
2022/03/09 05:01:32;;;;;;;4.37;2.00;;;2.90;99.90;2.60;101925.00;;;;5114760;28;20180;-71
2022/03/09 05:04:04;;;;;;;0.30;0.30;;;2.90;99.90;2.80;101965.00;;;;5098894;28;20184;-70
2022/03/09 05:06:40;;;;;;;0.77;0.77;;;2.90;99.90;2.50;101912.00;;;;5114609;28;20176;-70
2022/03/09 05:09:09;;;;;;;0.23;0.23;;;2.80;99.90;2.70;101960.00;;;;5113927;28;20172;-70
2022/03/09 05:11:38;;;;;;;1.43;1.40;;;2.90;99.90;2.30;101906.00;;;;5097685;28;20224;-70
2022/03/09 05:14:09;;;;;;;1.53;1.43;;;2.80;99.90;2.50;101964.00;;;;5097662;28;20191;-70
2022/03/09 05:16:40;;;;;;;1.13;1.03;;;2.80;99.90;2.70;101963.00;;;;5114966;28;20165;-70
2022/03/09 05:19:17;;;;;;;1.70;1.67;;;2.80;99.90;2.30;101962.00;;;;5114323;28;20183;-70
2022/03/09 05:21:45;;;;;;;3.20;1.17;;;2.80;99.90;2.60;101952.00;;;;5114488;28;20172;-70
2022/03/09 05:24:16;;;;;;;0.77;0.77;;;2.80;99.90;2.60;101941.00;;;;5096317;28;20673;-70
2022/03/09 05:26:46;;;;;;;2.33;1.97;;;2.80;99.90;3.00;101956.00;;;;5116049;28;20201;-70
2022/03/09 05:29:15;;;;;;;1.37;1.07;;;2.90;99.90;2.70;101946.00;;;;5113987;28;20164;-70
2022/03/09 05:31:49;;;;;;;0.93;0.60;;;2.90;99.90;2.60;101953.00;;;;5096658;28;20216;-70
2022/03/09 05:34:15;;;;;;;1.90;1.10;;;2.90;99.90;2.60;101967.00;;;;5113694;28;20183;-70
2022/03/09 05:36:43;;;;;;;1.87;1.70;;;2.80;99.90;2.70;101958.00;;;;5096577;28;20199;-70
2022/03/09 05:39:14;;;;;;;2.00;1.80;;;2.90;99.90;2.70;101970.00;;;;5096521;28;20175;-70
2022/03/09 05:41:47;;;;;;;1.50;1.50;;;2.90;99.90;2.80;101963.00;;;;5096255;28;20631;-70
2022/03/09 05:44:16;;;;;;;0.40;0.40;;;2.90;99.90;2.50;101968.00;;;;5113367;28;20203;-70
2022/03/09 05:46:41;;;;;;;0.30;0.30;;;2.90;99.90;2.50;101965.00;;;;5095879;28;20184;-70
2022/03/09 05:49:13;;;;;;;0.30;0.30;;;2.80;99.90;2.50;101961.00;;;;5113219;28;20191;-70
2022/03/09 05:51:41;;;;;;;0.20;0.20;;;2.70;99.90;2.50;101920.00;;;;5113214;28;20235;-70
2022/03/09 05:54:09;;;;;;;0.20;0.20;;;2.70;99.90;2.40;101967.00;;;;5096161;28;20188;-69
2022/03/09 05:56:36;;;;;;;1.13;1.10;;;2.70;99.90;2.80;101973.00;;;;5096795;28;20183;-70
2022/03/09 05:59:04;;;;;;;0.83;0.83;;;2.80;99.90;2.70;101915.00;;;;5113578;28;20164;-70
2022/03/09 06:01:33;;;;;;;1.37;1.37;;;2.90;99.90;3.00;101974.00;;;;5095523;28;20235;-70
2022/03/09 06:04:02;;;;;;;0.30;0.30;;;2.90;99.90;2.90;101945.00;;;;5112394;28;20194;-70
2022/03/09 06:06:36;;;;;;;0.27;0.27;;;3.00;99.90;2.90;101986.00;;;;5113383;28;20176;-70
2022/03/09 06:09:07;;;;;;;0.63;0.63;;;2.90;99.90;3.00;101981.00;;;;5114356;28;20176;-70
2022/03/09 06:11:35;;;;;;;1.60;1.60;;;3.10;99.90;3.10;101928.00;;;;5095268;28;20978;-70
2022/03/09 06:14:03;;;;;;;0.40;0.40;;;3.10;99.90;3.00;101982.00;;;;5096541;28;20191;-70
2022/03/09 06:16:34;;;;;;;1.67;0.97;;;3.10;99.90;2.80;101986.00;;;;5112763;28;20168;-69
2022/03/09 06:19:03;;;;;;;1.10;1.10;;;3.00;99.90;3.10;101992.00;;;;5095228;28;20188;-69
2022/03/09 06:21:32;;;;;;;0.20;0.20;;;3.10;99.90;2.90;101994.00;;;;5095768;28;20188;-69
2022/03/09 06:24:02;;;;;;;0.20;0.20;;;3.10;99.90;2.90;101989.00;;;;5096314;28;20184;-71
2022/03/09 06:26:28;;;;;;;2.00;1.90;;;3.10;99.90;3.10;101998.00;;;;5113533;28;20698;-69
2022/03/09 06:28:57;;;;;;;3.47;2.23;;;3.10;99.90;2.80;102001.00;;;;5113002;28;20259;-69
2022/03/09 06:31:31;;;;;;;0.60;0.60;;;3.10;99.90;3.00;101938.00;;;;5112787;28;20180;-71
2022/03/09 06:33:59;;;;;;;1.03;0.80;;;3.10;99.90;3.10;101995.00;;;;5112759;28;20178;-69
2022/03/09 06:36:27;;;;;;;2.30;2.20;;;3.20;99.90;3.10;102000.00;;;;5114060;28;20180;-69
2022/03/09 06:38:57;;;;;;;0.50;0.50;;;3.30;99.90;3.10;101947.00;;;;5113255;28;20636;-69
2022/03/09 06:41:26;;;;;;;4.20;3.80;;;3.20;99.90;3.00;101995.00;;;;5113194;28;20179;-70
2022/03/09 06:43:56;;;;;;;0.87;0.87;;;3.20;99.90;3.10;102007.00;;;;5096009;28;20229;-69
2022/03/09 06:46:28;;;;;;;0.53;0.53;;;3.30;99.90;3.30;101979.00;;;;5097524;28;20173;-69
2022/03/09 06:48:56;;;;;;;0.20;0.20;;;3.40;99.90;3.20;102003.00;;;;5096200;28;20227;-69
2022/03/09 06:51:25;;;;;;;0.60;0.60;;;3.40;99.90;3.60;102004.00;;;;5096239;28;20202;-70
2022/03/09 06:53:51;;;;;;;0.40;0.40;;;3.60;99.90;3.50;101998.00;;;;5099646;28;20211;-69
2022/03/09 06:56:19;;;;;;;0.57;0.50;;;3.70;99.90;4.00;101980.00;;;;5100328;28;20184;-69
2022/03/09 06:58:51;;;;;;;0.20;0.20;;;3.80;99.90;3.60;102011.00;;;;5116599;28;20219;-69
2022/03/09 07:01:22;;;;;;;0.20;0.20;;;3.90;99.90;4.20;101970.00;;;;5101162;28;20615;-69
2022/03/09 07:03:55;;;;;;;0.83;0.83;;;4.00;99.90;4.00;101966.00;;;;5099877;28;20278;-70
2022/03/09 07:06:23;;;;;;;2.23;2.13;;;4.20;99.90;4.00;102023.00;;;;5117898;28;20211;-69
2022/03/09 07:08:52;;;;;;;0.30;0.30;;;4.30;99.90;4.00;102014.00;;;;5116448;28;20263;-69
2022/03/09 07:11:20;;;;;;;1.57;1.03;;;4.30;99.90;4.80;101963.00;;;;5117370;27;20176;-69
2022/03/09 07:13:51;;;;;;;2.40;2.20;;;4.70;99.90;5.30;102016.00;;;;5115933;28;20182;-69
2022/03/09 07:16:25;;;;;;;3.40;3.03;;;5.10;99.90;5.80;102011.00;;;;5098950;28;20221;-68
2022/03/09 07:18:56;;;;;;;0.60;0.60;;;5.50;99.90;5.30;102014.00;;;;5116058;28;20242;-68
2022/03/09 07:21:24;;;;;;;0.43;0.43;;;5.60;99.90;4.70;102009.00;;;;5116139;28;20174;-68
2022/03/09 07:23:55;;;;;;;0.83;0.83;;;5.40;99.90;4.90;102008.00;;;;5098961;28;20330;-68
2022/03/09 07:26:26;;;;;;;0.87;0.87;;;5.30;99.90;5.00;102011.00;;;;5115916;28;20183;-68
2022/03/09 07:28:56;;;;;;;1.17;1.17;;;5.40;99.90;5.80;102019.00;;;;5115973;28;20500;-68
2022/03/09 07:31:25;;;;;;;2.57;2.37;;;5.70;99.90;5.60;101969.00;;;;5115932;28;20596;-69
2022/03/09 07:33:53;;;;;;;10.50;7.30;;;5.80;99.90;6.10;102020.00;;;;5115838;28;20183;-68
2022/03/09 07:36:25;;;;;;;2.93;2.47;;;6.10;99.90;6.10;101995.00;;;;5115707;28;20164;-69
2022/03/09 07:38:54;;;;;;;0.50;0.50;;;6.20;99.90;6.70;102026.00;;;;5099122;28;20226;-69
2022/03/09 07:41:25;;;;;;;2.30;1.70;;;6.40;99.90;7.10;102009.00;;;;5116160;28;20186;-68
2022/03/09 07:43:51;;;;;;;0.33;0.33;;;6.90;99.90;6.80;101976.00;;;;5116095;28;20627;-68
2022/03/09 07:46:19;;;;;;;8.03;2.40;;;6.90;99.90;6.70;101977.00;;;;5115721;28;20177;-69
2022/03/09 07:48:47;;;;;;;0.40;0.40;;;7.00;99.90;6.80;102015.00;;;;5115520;28;20514;-68
2022/03/09 07:51:15;;;;;;;0.90;0.90;;;7.10;99.90;7.50;102029.00;;;;5098734;28;20184;-68
2022/03/09 07:53:43;;;;;;;0.20;0.20;;;7.50;99.90;7.90;102009.00;;;;5098590;28;20208;-69
2022/03/09 07:56:12;;;;;;;1.00;0.93;;;7.70;99.90;8.00;102012.00;;;;5115758;28;20610;-69
2022/03/09 07:58:43;;;;;;;2.10;1.47;;;8.10;99.90;8.10;102013.00;;;;5114950;28;20722;-70
2022/03/09 08:01:17;;;;;;;0.30;0.30;;;8.30;99.90;7.70;101980.00;;;;5115067;28;20188;-68
2022/03/09 08:03:48;;;;;;;1.43;1.33;;;8.10;99.90;8.30;102022.00;;;;5114668;28;20179;-68
2022/03/09 08:06:14;;;;;;;1.90;1.50;;;8.50;99.90;8.00;102026.00;;;;5115096;28;20180;-68
2022/03/09 08:08:46;;;;;;;2.23;1.43;;;8.30;99.90;8.90;102002.00;;;;5098187;28;20282;-69
2022/03/09 08:11:15;;;;;;;3.30;2.03;;;8.80;99.90;8.70;102017.00;;;;5098447;28;20639;-68
2022/03/09 08:13:44;;;;;;;8.50;7.67;;;8.80;99.90;9.30;102014.00;;;;5114555;28;20181;-68
2022/03/09 08:16:15;;;;;;;0.50;0.50;;;9.10;99.90;9.50;102013.00;;;;5116116;28;20180;-69
2022/03/09 08:18:41;;;;;;;2.77;2.10;;;9.40;99.90;9.70;102011.00;;;;5098162;28;20528;-69
2022/03/09 08:21:12;;;;;;;1.87;1.77;;;9.80;99.90;9.60;102020.00;;;;5097788;28;20184;-69
2022/03/09 08:23:38;;;;;;;2.73;1.93;;;9.70;99.90;9.70;102013.00;;;;5097785;28;20667;-69
2022/03/09 08:26:12;;;;;;;2.40;2.20;;;9.80;99.90;9.50;101997.00;;;;5114390;28;20193;-70
2022/03/09 08:28:42;;;;;;;2.70;2.37;;;9.80;99.90;9.50;101974.00;;;;5115709;28;20173;-69
2022/03/09 08:31:09;;;;;;;5.93;4.57;;;9.80;99.90;10.40;102014.00;;;;5097133;28;20215;-69
2022/03/09 08:33:42;;;;;;;2.57;1.27;;;10.10;99.90;10.10;102019.00;;;;5114749;28;20192;-69
2022/03/09 08:36:11;;;;;;;2.40;2.20;;;10.20;99.90;9.90;102027.00;;;;5098497;28;20180;-69
2022/03/09 08:38:42;;;;;;;4.33;3.20;;;10.10;99.90;9.50;102018.00;;;;5114823;28;20166;-69
2022/03/09 08:41:13;;;;;;;1.27;1.17;;;10.00;99.90;9.90;102002.00;;;;5114295;28;20175;-69
2022/03/09 08:43:44;;;;;;;3.33;2.83;;;10.10;99.90;9.60;102018.00;;;;5114410;28;20275;-69
2022/03/09 08:46:13;;;;;;;3.67;3.37;;;10.30;99.90;10.30;101994.00;;;;5114440;28;20538;-70
2022/03/09 08:48:45;;;;;;;2.87;2.17;;;10.20;99.90;9.90;102036.00;;;;5097222;28;20627;-69
2022/03/09 08:51:20;;;;;;;8.27;4.20;;;10.00;99.90;10.50;102022.00;;;;5097323;28;20179;-70
2022/03/09 08:53:54;;;;;;;2.83;2.40;;;10.40;99.90;9.90;102022.00;;;;5097679;28;20268;-69
2022/03/09 08:56:23;;;;;;;6.60;3.97;;;10.20;99.90;10.60;102021.00;;;;5097171;28;20190;-69
2022/03/09 08:58:57;;;;;;;3.50;2.10;;;10.50;99.90;11.10;102010.00;;;;5114374;28;20215;-69
2022/03/09 09:01:30;;;;;;;11.00;3.07;;;10.90;99.90;11.30;101958.00;;;;5114176;28;20181;-69
2022/03/09 09:03:56;;;;;;;3.97;2.80;;;11.30;99.90;10.90;101990.00;;;;5097261;28;20193;-69
2022/03/09 09:06:27;;;;;;;4.47;1.90;;;11.10;99.90;10.70;102014.00;;;;5096429;28;20196;-69
2022/03/09 09:08:55;;;;;;;0.30;0.30;;;11.10;99.70;11.30;102014.00;;;;5113691;28;20166;-69
2022/03/09 09:11:31;;;;;;;6.63;4.40;;;11.20;99.90;11.90;101960.00;;;;5113760;28;20193;-70
2022/03/09 09:14:01;;;;;;;6.90;4.40;;;11.70;99.40;11.60;101961.00;;;;5114011;28;20190;-69
2022/03/09 09:16:32;;;;;;;2.30;2.20;;;11.60;99.50;11.70;101993.00;;;;5112740;28;20266;-69
2022/03/09 09:18:58;;;;;;;2.53;2.33;;;11.70;99.40;11.60;101952.00;;;;5113592;28;20188;-69
2022/03/09 09:21:29;;;;;;;3.00;2.17;;;11.60;99.50;11.10;102008.00;;;;5113673;28;20179;-69
2022/03/09 09:23:55;;;;;;;2.17;1.43;;;11.50;99.40;10.90;102011.00;;;;5096595;28;20277;-69
2022/03/09 09:26:21;;;;;;;8.17;4.50;;;11.30;99.80;10.80;102022.00;;;;5096878;28;20667;-69
2022/03/09 09:28:52;;;;;;;5.40;4.60;;;11.30;99.90;11.90;102009.00;;;;5096349;28;20318;-69
2022/03/09 09:31:20;;;;;;;1.40;1.27;;;11.60;99.70;11.70;102011.00;;;;5113495;28;20194;-69
2022/03/09 09:33:46;;;;;;;9.37;8.80;;;11.70;99.90;11.90;102013.00;;;;5113198;28;20224;-68
2022/03/09 09:36:15;;;;;;;0.40;0.40;;;11.90;99.70;11.80;102015.00;;;;5096520;28;20628;-69
2022/03/09 09:38:48;;;;;;;1.80;1.40;;;12.00;99.30;13.10;102019.00;;;;5096089;28;20189;-69
2022/03/09 09:41:19;;;;;;;2.23;2.07;;;12.60;99.30;12.80;102011.00;;;;5113365;28;20262;-69
2022/03/09 09:43:50;;;;;;;2.63;2.00;;;13.00;98.40;12.60;101982.00;;;;5112973;28;20183;-69
2022/03/09 09:46:18;;;;;;;7.10;3.87;;;12.80;98.70;13.30;102027.00;;;;5113113;28;20189;-69
2022/03/09 09:48:49;;;;;;;2.87;2.00;;;13.10;98.90;12.90;102028.00;;;;5114037;28;20209;-69
2022/03/09 09:51:20;;;;;;;6.93;4.63;;;13.10;98.20;12.80;102029.00;;;;5096012;28;20190;-69
2022/03/09 09:53:56;;;;;;;4.77;2.80;;;12.70;98.80;12.90;102025.00;;;;5095883;28;20191;-68
2022/03/09 09:56:29;;;;;;;3.73;1.47;;;12.80;98.80;12.70;102046.00;;;;5096026;28;20185;-69
2022/03/09 09:58:58;;;;;;;3.47;1.80;;;12.80;99.10;12.30;102039.00;;;;5095860;28;20572;-68
2022/03/09 10:01:29;;;;;;;6.07;4.17;;;12.50;99.30;12.10;102042.00;;;;5096149;28;20213;-69
2022/03/09 10:03:58;;;;;;;0.97;0.90;;;12.40;99.50;12.30;102047.00;;;;5112748;28;20176;-69
2022/03/09 10:06:27;;;;;;;1.50;1.50;;;12.50;99.50;12.60;102059.00;;;;5095971;28;20627;-68
2022/03/09 10:09:12;;;;;;;1.97;1.80;;;12.50;99.70;13.60;102041.00;;;;5113409;28;20260;-70
2022/03/09 10:11:52;;;;;;;3.20;2.93;;;13.20;99.30;13.70;102005.00;;;;5112830;28;20192;-70
2022/03/09 10:14:53;;;;;;;2.23;2.07;;;13.50;99.10;13.10;102049.00;;;;5095843;28;20184;-67
2022/03/09 10:17:28;;;;;;;2.83;2.00;;;13.40;98.90;13.80;102028.00;;;;5097950;28;20199;-69
2022/03/09 10:20:12;;;;;;;2.87;2.67;;;13.60;98.90;14.00;101986.00;;;;5095656;28;20188;-68
2022/03/09 10:33:13;;;;;;;1.87;1.77;;;13.70;98.70;13.70;102056.00;;;;5113580;27;1312163;-67
2022/03/09 10:35:48;;;;;;;6.43;4.33;;;13.70;99.40;14.70;102043.00;;;;5130636;28;20203;-68
2022/03/09 10:38:20;;;;;;;1.03;0.97;;;14.30;98.60;13.70;102025.00;;;;5113200;28;20180;-69
2022/03/09 10:41:00;;;;;;;2.47;2.30;;;14.40;98.70;15.10;102041.00;;;;5131377;27;20178;-67
2022/03/09 10:43:29;;;;;;;0.47;0.47;;;14.60;98.90;14.70;102001.00;;;;5130454;28;20639;-68
2022/03/09 10:46:16;;;;;;;7.70;4.13;;;14.80;98.30;15.10;102036.00;;;;5130468;28;20269;-68
2022/03/09 10:49:02;;;;;;;5.47;3.47;;;14.80;98.30;15.00;102043.00;;;;5130278;28;20235;-68
2022/03/09 10:51:42;;;;;;;1.73;1.33;;;14.90;98.10;14.10;102049.00;;;;5130083;28;20197;-69
2022/03/09 10:54:25;;;;;;;5.37;3.90;;;14.70;98.20;15.10;102036.00;;;;5131568;27;20179;-69
2022/03/09 10:57:15;;;;;;;2.30;2.13;;;14.80;98.30;14.90;102033.00;;;;5113132;28;20177;-69
2022/03/09 10:59:53;;;;;;;2.03;1.53;;;15.20;97.40;14.80;102043.00;;;;5113160;28;20540;-69
2022/03/09 11:03:10;;;;;;;1.90;1.80;;;15.00;97.40;15.90;101979.00;;;;5129921;28;20183;-69
2022/03/09 11:06:20;;;;;;;2.60;1.80;;;15.40;97.40;15.90;101992.00;;;;5129796;28;20187;-69
2022/03/09 11:09:08;;;;;;;3.30;2.50;;;15.80;96.70;15.70;102030.00;;;;5113863;28;20259;-68
2022/03/09 11:11:40;;;;;;;10.27;5.70;;;15.90;96.50;16.70;102017.00;;;;5112372;28;20208;-69
2022/03/09 11:14:13;;;;;;;0.20;0.20;;;16.20;96.10;16.10;102024.00;;;;5130175;28;20191;-69
2022/03/09 11:16:46;;;;;;;2.43;1.70;;;16.10;96.20;16.50;102030.00;;;;5112703;28;20198;-69
2022/03/09 11:19:18;;;;;;;4.73;3.77;;;16.10;96.10;16.10;102014.00;;;;5129555;28;20178;-69
2022/03/09 11:21:50;;;;;;;0.40;0.40;;;16.30;95.60;16.50;102022.00;;;;5112147;28;20553;-68
2022/03/09 11:24:23;;;;;;;1.50;1.47;;;16.30;95.70;17.00;102013.00;;;;5129373;28;20603;-69